sensor_id;sensor_type;location;lat;lon;timestamp;P1;durP1;ratioP1;P2;durP2;ratioP2
69392;SDS011;56582;44.624;20.378;2024-01-27T00:01:22;23.98;;;13.20;;
69392;SDS011;56582;44.624;20.378;2024-01-27T00:03:47;27.93;;;14.13;;
69392;SDS011;56582;44.624;20.378;2024-01-27T00:06:13;27.20;;;12.60;;
69392;SDS011;56582;44.624;20.378;2024-01-27T00:08:38;31.25;;;13.32;;
69392;SDS011;56582;44.624;20.378;2024-01-27T00:11:04;26.73;;;14.60;;
69392;SDS011;56582;44.624;20.378;2024-01-27T00:13:30;29.90;;;15.93;;
69392;SDS011;56582;44.624;20.378;2024-01-27T00:15:55;35.83;;;17.83;;
69392;SDS011;56582;44.624;20.378;2024-01-27T00:18:20;35.37;;;17.87;;
69392;SDS011;56582;44.624;20.378;2024-01-27T00:20:46;37.80;;;18.13;;
69392;SDS011;56582;44.624;20.378;2024-01-27T00:23:12;34.47;;;17.80;;
69392;SDS011;56582;44.624;20.378;2024-01-27T00:25:37;38.17;;;19.00;;
69392;SDS011;56582;44.624;20.378;2024-01-27T00:28:03;37.20;;;18.58;;
69392;SDS011;56582;44.624;20.378;2024-01-27T00:30:28;33.57;;;18.70;;
69392;SDS011;56582;44.624;20.378;2024-01-27T00:32:54;32.97;;;19.20;;
69392;SDS011;56582;44.624;20.378;2024-01-27T00:35:19;38.23;;;17.63;;
69392;SDS011;56582;44.624;20.378;2024-01-27T00:37:45;35.80;;;18.65;;
69392;SDS011;56582;44.624;20.378;2024-01-27T00:40:11;32.33;;;17.73;;
69392;SDS011;56582;44.624;20.378;2024-01-27T00:42:37;32.78;;;16.25;;
69392;SDS011;56582;44.624;20.378;2024-01-27T00:45:03;35.27;;;18.20;;
69392;SDS011;56582;44.624;20.378;2024-01-27T00:47:30;36.05;;;18.50;;
69392;SDS011;56582;44.624;20.378;2024-01-27T00:49:55;32.47;;;16.42;;
69392;SDS011;56582;44.624;20.378;2024-01-27T00:52:21;28.50;;;16.47;;
69392;SDS011;56582;44.624;20.378;2024-01-27T00:54:47;38.20;;;17.87;;
69392;SDS011;56582;44.624;20.378;2024-01-27T00:57:12;38.00;;;18.40;;
69392;SDS011;56582;44.624;20.378;2024-01-27T00:59:38;33.17;;;16.33;;
69392;SDS011;56582;44.624;20.378;2024-01-27T01:02:04;29.73;;;15.73;;
69392;SDS011;56582;44.624;20.378;2024-01-27T01:04:29;32.30;;;17.83;;
69392;SDS011;56582;44.624;20.378;2024-01-27T01:06:55;29.83;;;14.30;;
69392;SDS011;56582;44.624;20.378;2024-01-27T01:09:21;28.00;;;15.40;;
69392;SDS011;56582;44.624;20.378;2024-01-27T01:11:46;31.23;;;16.10;;
69392;SDS011;56582;44.624;20.378;2024-01-27T01:14:12;29.53;;;15.27;;
69392;SDS011;56582;44.624;20.378;2024-01-27T01:16:38;25.70;;;14.77;;
69392;SDS011;56582;44.624;20.378;2024-01-27T01:19:04;25.42;;;14.82;;
69392;SDS011;56582;44.624;20.378;2024-01-27T01:21:29;24.90;;;13.23;;
69392;SDS011;56582;44.624;20.378;2024-01-27T01:23:55;25.27;;;12.90;;
69392;SDS011;56582;44.624;20.378;2024-01-27T01:26:20;25.30;;;12.40;;
69392;SDS011;56582;44.624;20.378;2024-01-27T01:28:46;21.73;;;11.80;;
69392;SDS011;56582;44.624;20.378;2024-01-27T01:31:11;24.23;;;12.67;;
69392;SDS011;56582;44.624;20.378;2024-01-27T01:33:37;23.50;;;12.80;;
69392;SDS011;56582;44.624;20.378;2024-01-27T01:36:02;24.13;;;12.87;;
69392;SDS011;56582;44.624;20.378;2024-01-27T01:38:28;24.63;;;11.87;;
69392;SDS011;56582;44.624;20.378;2024-01-27T01:40:53;20.20;;;11.00;;
69392;SDS011;56582;44.624;20.378;2024-01-27T01:43:19;23.10;;;11.00;;
69392;SDS011;56582;44.624;20.378;2024-01-27T01:45:44;26.07;;;12.30;;
69392;SDS011;56582;44.624;20.378;2024-01-27T01:48:10;18.47;;;10.70;;
69392;SDS011;56582;44.624;20.378;2024-01-27T01:50:35;21.37;;;11.10;;
69392;SDS011;56582;44.624;20.378;2024-01-27T01:53:01;21.70;;;11.03;;
69392;SDS011;56582;44.624;20.378;2024-01-27T01:55:27;25.98;;;11.25;;
69392;SDS011;56582;44.624;20.378;2024-01-27T01:57:52;32.93;;;12.27;;
69392;SDS011;56582;44.624;20.378;2024-01-27T02:00:18;32.92;;;13.70;;
69392;SDS011;56582;44.624;20.378;2024-01-27T02:02:44;32.90;;;14.10;;
69392;SDS011;56582;44.624;20.378;2024-01-27T02:05:11;31.38;;;14.48;;
69392;SDS011;56582;44.624;20.378;2024-01-27T02:07:37;34.17;;;16.05;;
69392;SDS011;56582;44.624;20.378;2024-01-27T02:10:03;33.40;;;15.37;;
69392;SDS011;56582;44.624;20.378;2024-01-27T02:12:29;33.78;;;15.35;;
69392;SDS011;56582;44.624;20.378;2024-01-27T02:14:54;34.73;;;16.37;;
69392;SDS011;56582;44.624;20.378;2024-01-27T02:17:20;30.05;;;13.25;;
69392;SDS011;56582;44.624;20.378;2024-01-27T02:19:45;33.43;;;17.13;;
69392;SDS011;56582;44.624;20.378;2024-01-27T02:22:11;46.53;;;20.57;;
69392;SDS011;56582;44.624;20.378;2024-01-27T02:24:36;22.48;;;9.73;;
69392;SDS011;56582;44.624;20.378;2024-01-27T02:27:02;18.20;;;9.20;;
69392;SDS011;56582;44.624;20.378;2024-01-27T02:29:27;19.87;;;11.03;;
69392;SDS011;56582;44.624;20.378;2024-01-27T02:31:53;17.75;;;11.05;;
69392;SDS011;56582;44.624;20.378;2024-01-27T02:34:20;21.83;;;11.95;;
69392;SDS011;56582;44.624;20.378;2024-01-27T02:36:45;24.30;;;13.17;;
69392;SDS011;56582;44.624;20.378;2024-01-27T02:39:13;27.97;;;16.20;;
69392;SDS011;56582;44.624;20.378;2024-01-27T02:41:39;32.15;;;13.55;;
69392;SDS011;56582;44.624;20.378;2024-01-27T02:44:05;27.97;;;14.17;;
69392;SDS011;56582;44.624;20.378;2024-01-27T02:46:31;27.48;;;15.95;;
69392;SDS011;56582;44.624;20.378;2024-01-27T02:48:57;40.47;;;19.60;;
69392;SDS011;56582;44.624;20.378;2024-01-27T02:51:22;35.20;;;18.50;;
69392;SDS011;56582;44.624;20.378;2024-01-27T02:53:48;22.27;;;12.50;;
69392;SDS011;56582;44.624;20.378;2024-01-27T02:56:13;37.95;;;19.13;;
69392;SDS011;56582;44.624;20.378;2024-01-27T02:58:41;42.50;;;20.98;;
69392;SDS011;56582;44.624;20.378;2024-01-27T03:01:07;35.43;;;19.07;;
69392;SDS011;56582;44.624;20.378;2024-01-27T03:03:33;38.15;;;21.30;;
69392;SDS011;56582;44.624;20.378;2024-01-27T03:05:59;39.95;;;20.48;;
69392;SDS011;56582;44.624;20.378;2024-01-27T03:08:24;38.60;;;20.03;;
69392;SDS011;56582;44.624;20.378;2024-01-27T03:10:50;39.13;;;19.80;;
69392;SDS011;56582;44.624;20.378;2024-01-27T03:13:15;40.55;;;21.15;;
69392;SDS011;56582;44.624;20.378;2024-01-27T03:15:41;43.20;;;23.80;;
69392;SDS011;56582;44.624;20.378;2024-01-27T03:18:08;44.80;;;22.48;;
69392;SDS011;56582;44.624;20.378;2024-01-27T03:20:34;54.57;;;28.03;;
69392;SDS011;56582;44.624;20.378;2024-01-27T03:22:59;34.72;;;21.40;;
69392;SDS011;56582;44.624;20.378;2024-01-27T03:25:25;38.10;;;21.67;;
69392;SDS011;56582;44.624;20.378;2024-01-27T03:27:51;43.08;;;20.63;;
69392;SDS011;56582;44.624;20.378;2024-01-27T03:30:17;34.93;;;19.67;;
69392;SDS011;56582;44.624;20.378;2024-01-27T03:32:42;39.92;;;22.85;;
69392;SDS011;56582;44.624;20.378;2024-01-27T03:35:08;36.17;;;18.90;;
69392;SDS011;56582;44.624;20.378;2024-01-27T03:37:34;34.78;;;20.95;;
69392;SDS011;56582;44.624;20.378;2024-01-27T03:39:59;34.13;;;18.83;;
69392;SDS011;56582;44.624;20.378;2024-01-27T03:42:26;33.47;;;17.73;;
69392;SDS011;56582;44.624;20.378;2024-01-27T03:44:51;30.90;;;15.40;;
69392;SDS011;56582;44.624;20.378;2024-01-27T03:47:17;26.97;;;16.23;;
69392;SDS011;56582;44.624;20.378;2024-01-27T03:49:43;21.83;;;12.45;;
69392;SDS011;56582;44.624;20.378;2024-01-27T03:52:08;20.60;;;11.00;;
69392;SDS011;56582;44.624;20.378;2024-01-27T03:54:34;23.27;;;12.67;;
69392;SDS011;56582;44.624;20.378;2024-01-27T03:56:59;22.17;;;12.60;;
69392;SDS011;56582;44.624;20.378;2024-01-27T03:59:25;16.07;;;9.73;;
69392;SDS011;56582;44.624;20.378;2024-01-27T04:01:50;17.53;;;9.30;;
69392;SDS011;56582;44.624;20.378;2024-01-27T04:04:16;18.08;;;11.05;;
69392;SDS011;56582;44.624;20.378;2024-01-27T04:06:41;12.17;;;7.67;;
69392;SDS011;56582;44.624;20.378;2024-01-27T04:09:07;16.90;;;9.25;;
69392;SDS011;56582;44.624;20.378;2024-01-27T04:11:36;14.20;;;8.17;;
69392;SDS011;56582;44.624;20.378;2024-01-27T04:14:03;14.75;;;8.13;;
69392;SDS011;56582;44.624;20.378;2024-01-27T04:16:29;12.63;;;6.32;;
69392;SDS011;56582;44.624;20.378;2024-01-27T04:18:55;10.23;;;7.17;;
69392;SDS011;56582;44.624;20.378;2024-01-27T04:21:21;9.75;;;7.13;;
69392;SDS011;56582;44.624;20.378;2024-01-27T04:23:46;11.67;;;6.70;;
69392;SDS011;56582;44.624;20.378;2024-01-27T04:26:12;10.40;;;6.32;;
69392;SDS011;56582;44.624;20.378;2024-01-27T04:28:37;7.70;;;5.87;;
69392;SDS011;56582;44.624;20.378;2024-01-27T04:31:03;9.40;;;5.00;;
69392;SDS011;56582;44.624;20.378;2024-01-27T04:33:29;8.05;;;4.65;;
69392;SDS011;56582;44.624;20.378;2024-01-27T04:35:55;8.48;;;4.93;;
69392;SDS011;56582;44.624;20.378;2024-01-27T04:38:20;10.37;;;5.80;;
69392;SDS011;56582;44.624;20.378;2024-01-27T04:40:46;7.67;;;4.57;;
69392;SDS011;56582;44.624;20.378;2024-01-27T04:43:15;11.93;;;6.07;;
69392;SDS011;56582;44.624;20.378;2024-01-27T04:45:41;9.18;;;5.70;;
69392;SDS011;56582;44.624;20.378;2024-01-27T04:48:07;7.17;;;3.93;;
69392;SDS011;56582;44.624;20.378;2024-01-27T04:50:32;10.98;;;5.95;;
69392;SDS011;56582;44.624;20.378;2024-01-27T04:52:58;8.27;;;5.37;;
69392;SDS011;56582;44.624;20.378;2024-01-27T04:55:23;9.73;;;5.63;;
69392;SDS011;56582;44.624;20.378;2024-01-27T04:57:49;10.57;;;5.20;;
69392;SDS011;56582;44.624;20.378;2024-01-27T05:00:14;6.82;;;4.45;;
69392;SDS011;56582;44.624;20.378;2024-01-27T05:02:40;7.60;;;5.27;;
69392;SDS011;56582;44.624;20.378;2024-01-27T05:05:07;5.88;;;3.60;;
69392;SDS011;56582;44.624;20.378;2024-01-27T05:07:32;7.75;;;4.07;;
69392;SDS011;56582;44.624;20.378;2024-01-27T05:09:58;6.77;;;3.87;;
69392;SDS011;56582;44.624;20.378;2024-01-27T05:12:24;6.70;;;4.97;;
69392;SDS011;56582;44.624;20.378;2024-01-27T05:14:49;8.93;;;3.80;;
69392;SDS011;56582;44.624;20.378;2024-01-27T05:17:15;5.28;;;4.07;;
69392;SDS011;56582;44.624;20.378;2024-01-27T05:19:40;9.93;;;4.40;;
69392;SDS011;56582;44.624;20.378;2024-01-27T05:22:06;5.93;;;4.63;;
69392;SDS011;56582;44.624;20.378;2024-01-27T05:24:31;5.33;;;4.17;;
69392;SDS011;56582;44.624;20.378;2024-01-27T05:26:57;5.50;;;4.10;;
69392;SDS011;56582;44.624;20.378;2024-01-27T05:29:22;4.83;;;4.00;;
69392;SDS011;56582;44.624;20.378;2024-01-27T05:31:48;6.73;;;4.10;;
69392;SDS011;56582;44.624;20.378;2024-01-27T05:34:13;6.85;;;4.22;;
69392;SDS011;56582;44.624;20.378;2024-01-27T05:36:40;4.25;;;3.25;;
69392;SDS011;56582;44.624;20.378;2024-01-27T05:39:05;7.17;;;3.67;;
69392;SDS011;56582;44.624;20.378;2024-01-27T05:41:31;6.13;;;4.75;;
69392;SDS011;56582;44.624;20.378;2024-01-27T05:43:57;4.53;;;3.53;;
69392;SDS011;56582;44.624;20.378;2024-01-27T05:46:23;6.00;;;3.60;;
69392;SDS011;56582;44.624;20.378;2024-01-27T05:48:51;6.00;;;4.32;;
69392;SDS011;56582;44.624;20.378;2024-01-27T05:51:19;4.43;;;3.87;;
69392;SDS011;56582;44.624;20.378;2024-01-27T05:53:45;4.47;;;3.10;;
69392;SDS011;56582;44.624;20.378;2024-01-27T05:56:11;4.30;;;3.90;;
69392;SDS011;56582;44.624;20.378;2024-01-27T05:58:37;5.22;;;3.70;;
69392;SDS011;56582;44.624;20.378;2024-01-27T06:01:02;4.10;;;3.03;;
69392;SDS011;56582;44.624;20.378;2024-01-27T06:03:28;7.57;;;4.18;;
69392;SDS011;56582;44.624;20.378;2024-01-27T06:05:54;5.00;;;4.50;;
69392;SDS011;56582;44.624;20.378;2024-01-27T06:08:20;4.80;;;3.50;;
69392;SDS011;56582;44.624;20.378;2024-01-27T06:10:46;5.47;;;4.70;;
69392;SDS011;56582;44.624;20.378;2024-01-27T06:13:12;4.47;;;3.58;;
69392;SDS011;56582;44.624;20.378;2024-01-27T06:15:37;5.03;;;4.47;;
69392;SDS011;56582;44.624;20.378;2024-01-27T06:18:03;6.20;;;3.87;;
69392;SDS011;56582;44.624;20.378;2024-01-27T06:20:28;5.60;;;4.83;;
69392;SDS011;56582;44.624;20.378;2024-01-27T06:22:54;4.97;;;4.45;;
69392;SDS011;56582;44.624;20.378;2024-01-27T06:25:20;6.90;;;4.40;;
69392;SDS011;56582;44.624;20.378;2024-01-27T06:27:46;9.13;;;6.78;;
69392;SDS011;56582;44.624;20.378;2024-01-27T06:30:12;8.25;;;5.60;;
69392;SDS011;56582;44.624;20.378;2024-01-27T06:32:39;6.00;;;3.93;;
69392;SDS011;56582;44.624;20.378;2024-01-27T06:35:05;5.75;;;4.32;;
69392;SDS011;56582;44.624;20.378;2024-01-27T06:37:30;5.60;;;4.57;;
69392;SDS011;56582;44.624;20.378;2024-01-27T06:39:56;6.72;;;5.25;;
69392;SDS011;56582;44.624;20.378;2024-01-27T06:42:22;12.80;;;6.10;;
69392;SDS011;56582;44.624;20.378;2024-01-27T06:44:47;20.97;;;9.80;;
69392;SDS011;56582;44.624;20.378;2024-01-27T06:47:13;9.10;;;4.97;;
69392;SDS011;56582;44.624;20.378;2024-01-27T06:49:39;10.38;;;6.10;;
69392;SDS011;56582;44.624;20.378;2024-01-27T06:52:04;6.07;;;5.10;;
69392;SDS011;56582;44.624;20.378;2024-01-27T06:54:30;8.23;;;4.90;;
69392;SDS011;56582;44.624;20.378;2024-01-27T06:56:55;10.47;;;6.77;;
69392;SDS011;56582;44.624;20.378;2024-01-27T06:59:21;8.47;;;5.37;;
69392;SDS011;56582;44.624;20.378;2024-01-27T07:01:47;4.70;;;4.17;;
69392;SDS011;56582;44.624;20.378;2024-01-27T07:04:16;6.50;;;4.72;;
69392;SDS011;56582;44.624;20.378;2024-01-27T07:06:42;5.95;;;5.20;;
69392;SDS011;56582;44.624;20.378;2024-01-27T07:09:08;4.80;;;4.30;;
69392;SDS011;56582;44.624;20.378;2024-01-27T07:11:37;5.18;;;3.88;;
69392;SDS011;56582;44.624;20.378;2024-01-27T07:14:03;6.00;;;4.57;;
69392;SDS011;56582;44.624;20.378;2024-01-27T07:16:28;6.68;;;3.33;;
69392;SDS011;56582;44.624;20.378;2024-01-27T07:18:54;5.25;;;4.28;;
69392;SDS011;56582;44.624;20.378;2024-01-27T07:21:20;4.27;;;3.00;;
69392;SDS011;56582;44.624;20.378;2024-01-27T07:23:57;4.50;;;3.55;;
69392;SDS011;56582;44.624;20.378;2024-01-27T07:26:49;5.57;;;4.13;;
69392;SDS011;56582;44.624;20.378;2024-01-27T07:29:15;8.57;;;5.07;;
69392;SDS011;56582;44.624;20.378;2024-01-27T07:31:49;11.18;;;5.57;;
69392;SDS011;56582;44.624;20.378;2024-01-27T07:37:55;5.93;;;3.78;;
69392;SDS011;56582;44.624;20.378;2024-01-27T07:40:35;4.97;;;3.33;;
69392;SDS011;56582;44.624;20.378;2024-01-27T07:43:10;6.93;;;4.40;;
69392;SDS011;56582;44.624;20.378;2024-01-27T07:45:36;11.00;;;6.60;;
69392;SDS011;56582;44.624;20.378;2024-01-27T07:48:01;6.10;;;3.80;;
69392;SDS011;56582;44.624;20.378;2024-01-27T07:50:28;9.55;;;5.07;;
69392;SDS011;56582;44.624;20.378;2024-01-27T07:52:53;7.47;;;4.50;;
69392;SDS011;56582;44.624;20.378;2024-01-27T07:55:19;5.20;;;4.40;;
69392;SDS011;56582;44.624;20.378;2024-01-27T07:57:44;5.03;;;3.67;;
69392;SDS011;56582;44.624;20.378;2024-01-27T08:00:10;4.18;;;3.15;;
69392;SDS011;56582;44.624;20.378;2024-01-27T08:02:36;6.47;;;4.25;;
69392;SDS011;56582;44.624;20.378;2024-01-27T08:05:02;6.80;;;4.87;;
69392;SDS011;56582;44.624;20.378;2024-01-27T08:07:28;6.93;;;4.93;;
69392;SDS011;56582;44.624;20.378;2024-01-27T08:09:54;13.40;;;7.50;;
69392;SDS011;56582;44.624;20.378;2024-01-27T08:12:22;5.65;;;3.83;;
69392;SDS011;56582;44.624;20.378;2024-01-27T08:14:47;8.25;;;5.32;;
69392;SDS011;56582;44.624;20.378;2024-01-27T08:17:13;8.93;;;5.27;;
69392;SDS011;56582;44.624;20.378;2024-01-27T08:19:39;5.00;;;3.17;;
69392;SDS011;56582;44.624;20.378;2024-01-27T08:22:04;6.00;;;4.83;;
69392;SDS011;56582;44.624;20.378;2024-01-27T08:24:30;7.18;;;5.28;;
69392;SDS011;56582;44.624;20.378;2024-01-27T08:26:55;5.20;;;3.57;;
69392;SDS011;56582;44.624;20.378;2024-01-27T08:29:21;5.10;;;3.53;;
69392;SDS011;56582;44.624;20.378;2024-01-27T08:31:47;5.15;;;3.33;;
69392;SDS011;56582;44.624;20.378;2024-01-27T08:34:12;7.50;;;4.07;;
69392;SDS011;56582;44.624;20.378;2024-01-27T08:36:38;12.17;;;6.23;;
69392;SDS011;56582;44.624;20.378;2024-01-27T08:39:03;9.48;;;6.15;;
69392;SDS011;56582;44.624;20.378;2024-01-27T08:41:32;8.27;;;6.13;;
69392;SDS011;56582;44.624;20.378;2024-01-27T08:43:57;9.20;;;7.27;;
69392;SDS011;56582;44.624;20.378;2024-01-27T08:46:23;8.00;;;4.07;;
69392;SDS011;56582;44.624;20.378;2024-01-27T08:48:49;6.30;;;4.00;;
69392;SDS011;56582;44.624;20.378;2024-01-27T08:51:14;7.87;;;4.60;;
69392;SDS011;56582;44.624;20.378;2024-01-27T08:53:42;5.50;;;3.72;;
69392;SDS011;56582;44.624;20.378;2024-01-27T08:56:14;6.45;;;4.78;;
69392;SDS011;56582;44.624;20.378;2024-01-27T08:58:40;8.55;;;4.82;;
69392;SDS011;56582;44.624;20.378;2024-01-27T09:01:06;9.83;;;4.97;;
69392;SDS011;56582;44.624;20.378;2024-01-27T09:03:34;6.88;;;4.38;;
69392;SDS011;56582;44.624;20.378;2024-01-27T09:05:59;5.13;;;3.80;;
69392;SDS011;56582;44.624;20.378;2024-01-27T09:08:24;12.80;;;4.80;;
69392;SDS011;56582;44.624;20.378;2024-01-27T09:10:50;4.30;;;3.88;;
69392;SDS011;56582;44.624;20.378;2024-01-27T09:13:16;8.97;;;4.43;;
69392;SDS011;56582;44.624;20.378;2024-01-27T09:15:42;9.48;;;4.72;;
69392;SDS011;56582;44.624;20.378;2024-01-27T09:18:08;8.23;;;4.57;;
69392;SDS011;56582;44.624;20.378;2024-01-27T09:20:33;7.27;;;4.00;;
69392;SDS011;56582;44.624;20.378;2024-01-27T09:22:59;8.17;;;4.90;;
69392;SDS011;56582;44.624;20.378;2024-01-27T09:25:24;7.30;;;4.00;;
69392;SDS011;56582;44.624;20.378;2024-01-27T09:27:52;7.87;;;4.57;;
69392;SDS011;56582;44.624;20.378;2024-01-27T09:30:18;8.13;;;5.90;;
69392;SDS011;56582;44.624;20.378;2024-01-27T09:32:44;7.60;;;5.30;;
69392;SDS011;56582;44.624;20.378;2024-01-27T09:35:09;5.27;;;3.67;;
69392;SDS011;56582;44.624;20.378;2024-01-27T09:37:35;8.83;;;5.97;;
69392;SDS011;56582;44.624;20.378;2024-01-27T09:40:00;7.13;;;3.83;;
69392;SDS011;56582;44.624;20.378;2024-01-27T09:42:27;5.83;;;3.03;;
69392;SDS011;56582;44.624;20.378;2024-01-27T09:44:53;4.88;;;3.95;;
69392;SDS011;56582;44.624;20.378;2024-01-27T09:47:24;6.03;;;4.70;;
69392;SDS011;56582;44.624;20.378;2024-01-27T09:49:50;7.82;;;5.30;;
69392;SDS011;56582;44.624;20.378;2024-01-27T09:52:16;8.73;;;3.37;;
69392;SDS011;56582;44.624;20.378;2024-01-27T09:54:42;5.20;;;4.10;;
69392;SDS011;56582;44.624;20.378;2024-01-27T09:57:08;5.33;;;3.87;;
69392;SDS011;56582;44.624;20.378;2024-01-27T09:59:34;6.07;;;5.13;;
69392;SDS011;56582;44.624;20.378;2024-01-27T10:02:02;6.38;;;4.40;;
69392;SDS011;56582;44.624;20.378;2024-01-27T10:04:29;9.55;;;5.20;;
69392;SDS011;56582;44.624;20.378;2024-01-27T10:06:55;7.65;;;4.47;;
69392;SDS011;56582;44.624;20.378;2024-01-27T10:09:22;10.17;;;4.40;;
69392;SDS011;56582;44.624;20.378;2024-01-27T10:11:48;6.13;;;4.13;;
69392;SDS011;56582;44.624;20.378;2024-01-27T10:14:15;7.40;;;5.05;;
69392;SDS011;56582;44.624;20.378;2024-01-27T10:16:41;13.17;;;6.93;;
69392;SDS011;56582;44.624;20.378;2024-01-27T10:19:14;8.13;;;5.85;;
69392;SDS011;56582;44.624;20.378;2024-01-27T10:21:46;5.03;;;4.57;;
69392;SDS011;56582;44.624;20.378;2024-01-27T10:24:13;8.40;;;6.07;;
69392;SDS011;56582;44.624;20.378;2024-01-27T10:26:39;5.75;;;3.45;;
69392;SDS011;56582;44.624;20.378;2024-01-27T10:29:14;5.57;;;3.90;;
69392;SDS011;56582;44.624;20.378;2024-01-27T10:31:39;6.03;;;3.97;;
69392;SDS011;56582;44.624;20.378;2024-01-27T10:34:05;8.15;;;4.40;;
69392;SDS011;56582;44.624;20.378;2024-01-27T10:36:41;4.97;;;3.50;;
69392;SDS011;56582;44.624;20.378;2024-01-27T10:39:22;5.32;;;3.53;;
69392;SDS011;56582;44.624;20.378;2024-01-27T10:41:49;4.43;;;3.33;;
69392;SDS011;56582;44.624;20.378;2024-01-27T10:44:16;6.70;;;3.83;;
69392;SDS011;56582;44.624;20.378;2024-01-27T10:46:43;7.47;;;4.03;;
69392;SDS011;56582;44.624;20.378;2024-01-27T10:49:13;8.83;;;5.33;;
69392;SDS011;56582;44.624;20.378;2024-01-27T10:51:43;9.05;;;5.47;;
69392;SDS011;56582;44.624;20.378;2024-01-27T10:54:13;11.70;;;7.05;;
69392;SDS011;56582;44.624;20.378;2024-01-27T10:56:43;16.98;;;7.93;;
69392;SDS011;56582;44.624;20.378;2024-01-27T10:59:11;10.45;;;5.35;;
69392;SDS011;56582;44.624;20.378;2024-01-27T11:01:38;8.47;;;5.07;;
69392;SDS011;56582;44.624;20.378;2024-01-27T11:04:10;6.80;;;4.80;;
69392;SDS011;56582;44.624;20.378;2024-01-27T11:06:38;5.70;;;4.35;;
69392;SDS011;56582;44.624;20.378;2024-01-27T11:09:04;7.03;;;4.82;;
69392;SDS011;56582;44.624;20.378;2024-01-27T11:11:33;9.00;;;5.53;;
69392;SDS011;56582;44.624;20.378;2024-01-27T11:13:59;10.25;;;5.15;;
69392;SDS011;56582;44.624;20.378;2024-01-27T11:16:25;7.93;;;5.43;;
69392;SDS011;56582;44.624;20.378;2024-01-27T11:18:52;6.17;;;4.00;;
69392;SDS011;56582;44.624;20.378;2024-01-27T11:21:18;5.45;;;4.45;;
69392;SDS011;56582;44.624;20.378;2024-01-27T11:23:43;6.23;;;5.00;;
69392;SDS011;56582;44.624;20.378;2024-01-27T11:26:16;5.13;;;4.00;;
69392;SDS011;56582;44.624;20.378;2024-01-27T11:28:44;8.70;;;4.88;;
69392;SDS011;56582;44.624;20.378;2024-01-27T11:31:09;6.77;;;3.77;;
69392;SDS011;56582;44.624;20.378;2024-01-27T11:33:42;5.50;;;4.40;;
69392;SDS011;56582;44.624;20.378;2024-01-27T11:36:14;5.85;;;3.72;;
69392;SDS011;56582;44.624;20.378;2024-01-27T11:38:47;7.50;;;4.90;;
69392;SDS011;56582;44.624;20.378;2024-01-27T11:41:13;9.37;;;5.77;;
69392;SDS011;56582;44.624;20.378;2024-01-27T11:43:51;9.75;;;4.95;;
69392;SDS011;56582;44.624;20.378;2024-01-27T11:46:18;9.23;;;5.72;;
69392;SDS011;56582;44.624;20.378;2024-01-27T11:48:43;5.53;;;3.53;;
69392;SDS011;56582;44.624;20.378;2024-01-27T11:51:12;5.93;;;4.75;;
69392;SDS011;56582;44.624;20.378;2024-01-27T11:53:38;12.18;;;6.65;;
69392;SDS011;56582;44.624;20.378;2024-01-27T11:56:04;9.20;;;5.00;;
69392;SDS011;56582;44.624;20.378;2024-01-27T11:58:33;7.95;;;4.88;;
69392;SDS011;56582;44.624;20.378;2024-01-27T12:00:58;5.13;;;3.72;;
69392;SDS011;56582;44.624;20.378;2024-01-27T12:03:24;4.50;;;3.60;;
69392;SDS011;56582;44.624;20.378;2024-01-27T12:05:50;6.70;;;4.50;;
69392;SDS011;56582;44.624;20.378;2024-01-27T12:08:16;7.90;;;4.50;;
69392;SDS011;56582;44.624;20.378;2024-01-27T12:10:44;5.70;;;3.75;;
69392;SDS011;56582;44.624;20.378;2024-01-27T12:13:09;8.10;;;4.03;;
69392;SDS011;56582;44.624;20.378;2024-01-27T12:15:35;7.00;;;4.38;;
69392;SDS011;56582;44.624;20.378;2024-01-27T12:18:01;8.07;;;4.53;;
69392;SDS011;56582;44.624;20.378;2024-01-27T12:20:29;9.52;;;5.22;;
69392;SDS011;56582;44.624;20.378;2024-01-27T12:23:05;6.93;;;5.03;;
69392;SDS011;56582;44.624;20.378;2024-01-27T12:25:32;7.75;;;5.30;;
69392;SDS011;56582;44.624;20.378;2024-01-27T12:28:01;6.25;;;3.88;;
69392;SDS011;56582;44.624;20.378;2024-01-27T12:30:33;7.25;;;5.15;;
69392;SDS011;56582;44.624;20.378;2024-01-27T12:33:00;9.63;;;6.23;;
69392;SDS011;56582;44.624;20.378;2024-01-27T12:35:26;4.85;;;3.78;;
69392;SDS011;56582;44.624;20.378;2024-01-27T12:37:54;7.25;;;4.07;;
69392;SDS011;56582;44.624;20.378;2024-01-27T12:40:20;5.37;;;2.87;;
69392;SDS011;56582;44.624;20.378;2024-01-27T12:42:47;10.48;;;4.70;;
69392;SDS011;56582;44.624;20.378;2024-01-27T12:45:13;8.27;;;3.60;;
69392;SDS011;56582;44.624;20.378;2024-01-27T12:47:39;5.60;;;3.50;;
69392;SDS011;56582;44.624;20.378;2024-01-27T12:50:05;7.30;;;4.53;;
69392;SDS011;56582;44.624;20.378;2024-01-27T12:52:31;5.68;;;3.85;;
69392;SDS011;56582;44.624;20.378;2024-01-27T12:54:57;7.28;;;4.45;;
69392;SDS011;56582;44.624;20.378;2024-01-27T12:57:23;6.57;;;4.73;;
69392;SDS011;56582;44.624;20.378;2024-01-27T12:59:48;7.95;;;5.00;;
69392;SDS011;56582;44.624;20.378;2024-01-27T13:02:14;6.70;;;4.50;;
69392;SDS011;56582;44.624;20.378;2024-01-27T13:04:40;5.20;;;4.32;;
69392;SDS011;56582;44.624;20.378;2024-01-27T13:07:06;7.93;;;5.15;;
69392;SDS011;56582;44.624;20.378;2024-01-27T13:09:37;14.13;;;7.03;;
69392;SDS011;56582;44.624;20.378;2024-01-27T13:12:04;8.17;;;5.00;;
69392;SDS011;56582;44.624;20.378;2024-01-27T13:14:32;12.80;;;6.80;;
69392;SDS011;56582;44.624;20.378;2024-01-27T13:17:03;7.35;;;5.20;;
69392;SDS011;56582;44.624;20.378;2024-01-27T13:19:28;10.90;;;5.35;;
69392;SDS011;56582;44.624;20.378;2024-01-27T13:21:56;6.38;;;4.55;;
69392;SDS011;56582;44.624;20.378;2024-01-27T13:24:22;5.53;;;4.03;;
69392;SDS011;56582;44.624;20.378;2024-01-27T13:26:49;6.53;;;3.95;;
69392;SDS011;56582;44.624;20.378;2024-01-27T13:29:17;5.57;;;3.85;;
69392;SDS011;56582;44.624;20.378;2024-01-27T13:31:43;8.52;;;5.43;;
69392;SDS011;56582;44.624;20.378;2024-01-27T13:34:12;8.23;;;4.70;;
69392;SDS011;56582;44.624;20.378;2024-01-27T13:36:38;6.63;;;4.10;;
69392;SDS011;56582;44.624;20.378;2024-01-27T13:39:03;6.05;;;3.63;;
69392;SDS011;56582;44.624;20.378;2024-01-27T13:41:30;6.38;;;3.53;;
69392;SDS011;56582;44.624;20.378;2024-01-27T13:44:00;6.93;;;3.27;;
69392;SDS011;56582;44.624;20.378;2024-01-27T13:46:29;6.57;;;3.47;;
69392;SDS011;56582;44.624;20.378;2024-01-27T13:48:56;5.00;;;3.55;;
69392;SDS011;56582;44.624;20.378;2024-01-27T13:51:25;5.32;;;4.07;;
69392;SDS011;56582;44.624;20.378;2024-01-27T13:53:52;5.32;;;3.33;;
69392;SDS011;56582;44.624;20.378;2024-01-27T13:56:22;6.87;;;3.70;;
69392;SDS011;56582;44.624;20.378;2024-01-27T13:58:47;7.13;;;4.72;;
69392;SDS011;56582;44.624;20.378;2024-01-27T14:01:13;6.10;;;3.97;;
69392;SDS011;56582;44.624;20.378;2024-01-27T14:03:39;6.50;;;3.40;;
69392;SDS011;56582;44.624;20.378;2024-01-27T14:06:05;7.07;;;3.93;;
69392;SDS011;56582;44.624;20.378;2024-01-27T14:08:33;4.85;;;3.17;;
69392;SDS011;56582;44.624;20.378;2024-01-27T14:11:13;6.53;;;3.45;;
69392;SDS011;56582;44.624;20.378;2024-01-27T14:13:58;6.43;;;3.53;;
69392;SDS011;56582;44.624;20.378;2024-01-27T14:16:23;5.45;;;3.20;;
69392;SDS011;56582;44.624;20.378;2024-01-27T14:18:50;6.40;;;4.17;;
69392;SDS011;56582;44.624;20.378;2024-01-27T14:21:16;9.68;;;4.78;;
69392;SDS011;56582;44.624;20.378;2024-01-27T14:23:42;12.88;;;6.30;;
69392;SDS011;56582;44.624;20.378;2024-01-27T14:26:08;8.63;;;5.25;;